Time;durP1;ratioP1;P1;durP2;ratioP2;P2;SDS_P1;SDS_P2;PMS_P1;PMS_P2;Temp;Humidity;BMP_temperature;BMP_pressure;BME280_temperature;BME280_humidity;BME280_pressure;Samples;Min_cycle;Max_cycle;Signal;HPM_P1;HPM_P2
2023/11/17 00:01:29;;;;;;;5.70;3.80;;;;;;;19.15;69.06;101653.53;5046477;28;20079;-33
2023/11/17 00:03:55;;;;;;;7.15;3.80;;;;;;;19.13;69.06;101652.16;5041431;28;20029;-34
2023/11/17 00:06:21;;;;;;;4.03;3.28;;;;;;;19.10;69.25;101652.69;5048724;28;20024;-34
2023/11/17 00:08:46;;;;;;;4.47;3.10;;;;;;;19.10;69.09;101649.94;5043059;28;20382;-35
2023/11/17 00:11:12;;;;;;;4.55;3.30;;;;;;;19.09;69.21;101662.84;5032883;28;20028;-35
2023/11/17 00:13:39;;;;;;;4.15;3.10;;;;;;;19.07;69.09;101663.13;5036931;28;20029;-35
2023/11/17 00:16:06;;;;;;;4.25;3.33;;;;;;;19.05;69.35;101659.78;5034514;28;20029;-36
2023/11/17 00:18:33;;;;;;;5.88;3.40;;;;;;;19.02;69.13;101663.09;5037558;28;20025;-34
2023/11/17 00:20:58;;;;;;;4.32;2.92;;;;;;;19.01;69.41;101666.09;5038432;28;20581;-33
2023/11/17 00:23:25;;;;;;;7.70;3.25;;;;;;;18.99;69.24;101663.59;5034792;28;20092;-31
2023/11/17 00:25:51;;;;;;;6.28;3.80;;;;;;;18.98;69.29;101667.47;5040534;28;20037;-32
2023/11/17 00:28:16;;;;;;;4.25;3.20;;;;;;;18.97;69.51;101671.28;5043870;28;20521;-32
2023/11/17 00:30:41;;;;;;;4.35;3.30;;;;;;;18.95;69.22;101676.22;5043378;28;20060;-32
2023/11/17 00:33:07;;;;;;;4.82;2.90;;;;;;;18.93;69.46;101675.63;5033819;28;20017;-31
2023/11/17 00:35:32;;;;;;;4.85;2.97;;;;;;;18.90;69.40;101682.47;5044356;28;20128;-33
2023/11/17 00:37:59;;;;;;;4.90;2.95;;;;;;;18.87;69.35;101679.41;5041147;28;20057;-32
2023/11/17 00:40:24;;;;;;;5.88;3.05;;;;;;;18.88;69.37;101684.66;5035158;28;20037;-33
2023/11/17 00:42:49;;;;;;;4.95;2.90;;;;;;;18.87;69.73;101682.16;5039649;28;20037;-33
2023/11/17 00:45:15;;;;;;;5.43;3.00;;;;;;;18.85;69.48;101687.91;5044632;28;20642;-33
2023/11/17 00:47:41;;;;;;;3.38;2.70;;;;;;;18.83;69.74;101689.28;5030026;28;20450;-32
2023/11/17 00:50:11;;;;;;;5.80;2.90;;;;;;;18.82;69.46;101691.19;5049526;28;20488;-32
2023/11/17 00:52:38;;;;;;;6.82;2.92;;;;;;;18.81;69.61;101688.69;5057200;28;20121;-31
2023/11/17 00:55:07;;;;;;;3.80;2.83;;;;;;;18.80;69.75;101684.28;5057776;28;20036;-32
2023/11/17 00:57:32;;;;;;;3.20;2.90;;;;;;;18.79;69.68;101693.66;5056582;28;20017;-32
2023/11/17 00:59:57;;;;;;;4.53;2.90;;;;;;;18.78;69.56;101695.53;5053533;28;20653;-33
2023/11/17 01:02:24;;;;;;;3.70;2.80;;;;;;;18.77;69.73;101699.38;5047020;28;20135;-33
2023/11/17 01:04:50;;;;;;;5.07;3.28;;;;;;;18.76;69.56;101705.94;5039807;28;20461;-32
2023/11/17 01:07:17;;;;;;;3.75;2.80;;;;;;;18.73;69.80;101701.00;5059597;28;20054;-33
2023/11/17 01:09:43;;;;;;;4.32;2.95;;;;;;;18.73;69.95;101704.56;5040896;28;20620;-33
2023/11/17 01:12:09;;;;;;;3.75;2.90;;;;;;;18.72;69.82;101711.16;5045933;28;20064;-32
2023/11/17 01:14:35;;;;;;;4.15;2.80;;;;;;;18.72;69.94;101702.09;5044400;28;20051;-34
2023/11/17 01:17:00;;;;;;;4.45;2.80;;;;;;;18.70;70.04;101707.84;5062449;28;20445;-34
2023/11/17 01:19:26;;;;;;;5.50;3.08;;;;;;;18.67;69.85;101702.84;5054214;28;20025;-32
2023/11/17 01:21:51;;;;;;;4.05;2.72;;;;;;;18.68;69.99;101706.44;5063780;28;20457;-34
2023/11/17 01:24:17;;;;;;;3.97;2.88;;;;;;;18.65;70.14;101710.53;5048690;28;20032;-32
2023/11/17 01:26:43;;;;;;;6.13;3.00;;;;;;;18.65;70.06;101715.19;5030084;28;20028;-33
2023/11/17 01:29:08;;;;;;;3.83;3.15;;;;;;;18.63;69.93;101720.94;5050771;28;20032;-33
2023/11/17 01:31:34;;;;;;;3.60;2.90;;;;;;;18.61;70.18;101720.38;5053570;28;20032;-34
2023/11/17 01:33:59;;;;;;;3.70;2.75;;;;;;;18.61;70.04;101723.13;5046525;28;20493;-34
2023/11/17 01:36:25;;;;;;;3.47;2.63;;;;;;;18.60;69.87;101718.72;5039048;28;20113;-34
2023/11/17 01:38:52;;;;;;;3.60;2.40;;;;;;;18.58;70.00;101720.91;5055224;28;20029;-33
2023/11/17 01:41:18;;;;;;;4.40;2.50;;;;;;;18.58;70.12;101727.22;5039554;28;20032;-34
2023/11/17 01:43:43;;;;;;;4.53;2.70;;;;;;;18.58;70.06;101726.41;5053697;28;20030;-35
2023/11/17 01:46:10;;;;;;;4.35;2.80;;;;;;;18.56;70.09;101725.81;5060018;28;20032;-35
2023/11/17 01:48:37;;;;;;;4.78;2.60;;;;;;;18.56;70.00;101728.56;5037217;28;20076;-33
2023/11/17 01:51:04;;;;;;;3.30;2.72;;;;;;;18.55;70.01;101733.25;5039548;28;20063;-33
2023/11/17 01:53:31;;;;;;;6.93;2.90;;;;;;;18.54;70.12;101733.47;5041880;28;20032;-34
2023/11/17 01:55:56;;;;;;;4.13;2.58;;;;;;;18.53;70.00;101735.41;5024481;28;20349;-34
2023/11/17 01:58:24;;;;;;;4.28;2.80;;;;;;;18.52;70.35;101735.66;5045834;28;20028;-33
2023/11/17 02:00:50;;;;;;;3.80;2.65;;;;;;;18.50;69.76;101730.41;5050796;28;20053;-36
2023/11/17 02:03:17;;;;;;;4.35;3.08;;;;;;;18.50;70.29;101735.91;5038998;28;20419;-34
2023/11/17 02:05:42;;;;;;;5.88;3.00;;;;;;;18.49;70.19;101737.03;5037141;28;20458;-33
2023/11/17 02:08:32;;;;;;;5.13;3.33;;;;;;;18.49;70.36;101739.78;5045944;28;20075;-34
2023/11/17 02:11:18;;;;;;;5.15;3.30;;;;;;;18.49;70.32;101738.91;5050284;28;20025;-31
2023/11/17 02:14:24;;;;;;;6.30;3.50;;;;;;;18.47;70.16;101739.19;5051662;28;20564;-31
2023/11/17 02:16:50;;;;;;;;;;;;;;;18.47;70.08;101739.19;5033081;28;20045;-32
2023/11/17 02:19:34;;;;;;;6.25;3.53;;;;;;;18.48;70.11;101745.50;5041000;28;20404;-33
2023/11/17 02:22:02;;;;;;;8.30;4.63;;;;;;;18.45;70.30;101738.59;5069706;28;20068;-34
2023/11/17 02:24:31;;;;;;;6.85;3.92;;;;;;;18.43;70.22;101741.63;5037476;28;20029;-34
2023/11/17 02:27:06;;;;;;;9.68;3.95;;;;;;;18.42;70.47;101739.94;5076398;28;20408;-33
2023/11/17 02:29:37;;;;;;;10.55;4.25;;;;;;;18.41;70.62;101738.28;5045920;28;20028;-31
2023/11/17 02:32:04;;;;;;;7.30;3.90;;;;;;;18.41;70.54;101734.72;5045573;28;20255;-33
2023/11/17 02:34:32;;;;;;;7.28;4.10;;;;;;;18.40;70.54;101733.06;5050362;28;20414;-31
2023/11/17 02:36:59;;;;;;;8.27;4.25;;;;;;;18.39;70.25;101729.50;5064326;28;20075;-32
2023/11/17 02:39:27;;;;;;;10.65;4.70;;;;;;;18.39;70.49;101726.75;5049548;28;20143;-32
2023/11/17 02:41:56;;;;;;;8.25;4.32;;;;;;;18.39;70.52;101732.25;5030138;28;20485;-34
2023/11/17 02:44:29;;;;;;;6.88;4.45;;;;;;;18.39;70.43;101725.91;5032534;28;20048;-34
2023/11/17 02:46:58;;;;;;;8.75;3.83;;;;;;;18.39;70.58;101724.03;5031888;28;20410;-33
2023/11/17 02:49:46;;;;;;;7.35;3.92;;;;;;;18.38;70.59;101719.59;5033259;28;20036;-37
2023/11/17 02:52:18;;;;;;;7.18;3.70;;;;;;;18.36;70.29;101720.97;5060206;28;20066;-33
2023/11/17 02:54:44;;;;;;;9.55;4.15;;;;;;;18.37;70.30;101717.09;5062520;28;20485;-37
2023/11/17 02:57:10;;;;;;;6.22;3.80;;;;;;;18.36;70.56;101718.22;5053192;28;20113;-33
2023/11/17 02:59:37;;;;;;;6.20;3.63;;;;;;;18.35;70.34;101713.81;5037188;28;20430;-32
2023/11/17 03:02:02;;;;;;;6.90;4.00;;;;;;;18.34;70.36;101707.47;5045294;28;20433;-33
2023/11/17 03:04:28;;;;;;;6.72;3.53;;;;;;;18.35;70.58;101713.81;5028129;28;20025;-33
2023/11/17 03:06:55;;;;;;;7.35;3.75;;;;;;;18.34;70.60;101717.63;5037881;28;20533;-35
2023/11/17 03:09:22;;;;;;;6.18;3.40;;;;;;;18.34;70.23;101723.13;5041208;28;20102;-34
2023/11/17 03:11:51;;;;;;;5.88;3.33;;;;;;;18.32;70.45;101723.38;5041438;28;20029;-36
2023/11/17 03:14:17;;;;;;;7.78;3.63;;;;;;;18.31;70.47;101710.75;5036473;28;20484;-32
2023/11/17 03:16:42;;;;;;;6.32;3.03;;;;;;;18.31;70.35;101715.38;5038345;28;20033;-33
2023/11/17 03:19:11;;;;;;;4.63;3.20;;;;;;;18.29;70.26;101710.16;5029592;28;20045;-32
2023/11/17 03:21:41;;;;;;;5.70;2.90;;;;;;;18.29;70.31;101715.66;5043339;28;20459;-35
2023/11/17 03:24:14;;;;;;;5.68;2.90;;;;;;;18.27;70.56;101713.19;5028603;28;20401;-35
2023/11/17 03:26:52;;;;;;;4.22;2.92;;;;;;;18.27;70.53;101709.59;5032796;28;20070;-32
2023/11/17 03:29:19;;;;;;;6.15;3.05;;;;;;;18.26;70.18;101708.78;5026111;28;20033;-35
2023/11/17 03:31:49;;;;;;;4.60;3.03;;;;;;;18.27;70.48;101713.19;5033937;28;20024;-34
2023/11/17 03:34:44;;;;;;;5.32;2.83;;;;;;;18.27;70.19;101715.06;5038343;28;20059;-34
2023/11/17 03:37:12;;;;;;;4.15;2.70;;;;;;;18.27;70.39;101715.06;5041029;28;20040;-34
2023/11/17 03:39:41;;;;;;;4.88;2.75;;;;;;;18.25;70.28;101714.53;5042902;28;20025;-36
2023/11/17 03:42:10;;;;;;;5.47;2.65;;;;;;;18.24;70.19;101708.19;5056057;28;20051;-35
2023/11/17 03:44:36;;;;;;;4.47;2.80;;;;;;;18.24;70.31;101715.59;5053585;28;20070;-33
2023/11/17 03:47:06;;;;;;;4.25;2.70;;;;;;;18.24;70.17;101712.88;5039487;28;20024;-34
2023/11/17 03:49:32;;;;;;;3.75;2.58;;;;;;;18.23;70.30;101705.72;5027410;28;20037;-33
2023/11/17 03:51:57;;;;;;;4.95;2.70;;;;;;;18.21;70.00;101703.22;5043846;28;20039;-35
2023/11/17 03:54:23;;;;;;;5.32;3.35;;;;;;;18.21;70.31;101708.72;5030426;28;20642;-35
2023/11/17 03:56:49;;;;;;;4.60;2.72;;;;;;;18.20;70.29;101706.25;5028747;28;20112;-34
2023/11/17 03:59:16;;;;;;;3.92;2.70;;;;;;;18.19;70.18;101708.13;5041399;28;20533;-35
2023/11/17 04:01:45;;;;;;;3.90;2.40;;;;;;;18.19;70.19;101715.56;5039098;28;20498;-35
2023/11/17 04:04:10;;;;;;;4.47;2.85;;;;;;;18.19;70.29;101710.06;5051777;28;20017;-37
2023/11/17 04:06:36;;;;;;;3.97;2.50;;;;;;;18.17;70.14;101704.81;5045428;28;20063;-34
2023/11/17 04:09:07;;;;;;;3.58;2.58;;;;;;;18.18;70.18;101713.91;5056774;28;20028;-33
2023/11/17 04:11:35;;;;;;;3.83;2.47;;;;;;;18.16;70.02;101718.78;5044458;28;20170;-33
2023/11/17 04:14:01;;;;;;;4.25;2.50;;;;;;;18.16;70.02;101716.91;5048931;28;20039;-33
2023/11/17 04:16:30;;;;;;;3.80;2.72;;;;;;;18.16;70.23;101721.53;5045849;28;20037;-33
2023/11/17 04:18:55;;;;;;;6.90;2.67;;;;;;;18.15;70.15;101717.13;5043173;28;20021;-34
2023/11/17 04:21:23;;;;;;;5.18;2.55;;;;;;;18.14;70.30;101721.81;5046483;28;20040;-34
2023/11/17 04:23:49;;;;;;;4.55;2.47;;;;;;;18.14;70.29;101731.97;5033053;28;20029;-34
2023/11/17 04:26:14;;;;;;;5.97;2.50;;;;;;;18.12;70.29;101726.72;5047745;28;20036;-33
2023/11/17 04:28:40;;;;;;;3.88;2.40;;;;;;;18.11;70.11;101725.03;5053955;28;20313;-34
2023/11/17 04:31:07;;;;;;;3.75;2.20;;;;;;;18.12;70.26;101733.03;5059095;28;20025;-32
2023/11/17 04:33:36;;;;;;;3.97;2.42;;;;;;;18.10;70.50;101729.72;5040924;28;20029;-32
2023/11/17 04:36:02;;;;;;;5.35;2.80;;;;;;;18.10;70.39;101728.91;5051221;28;20060;-32
2023/11/17 04:38:29;;;;;;;3.75;2.58;;;;;;;18.09;70.21;101727.25;5042060;28;20036;-32
2023/11/17 04:40:54;;;;;;;4.22;2.50;;;;;;;18.08;70.58;101734.63;5028088;28;20116;-33
2023/11/17 04:43:19;;;;;;;3.80;2.50;;;;;;;18.07;70.35;101745.84;5050059;28;20108;-32
2023/11/17 04:45:45;;;;;;;4.30;2.60;;;;;;;18.05;70.45;101739.78;5050481;28;20140;-32
2023/11/17 04:48:16;;;;;;;3.13;2.40;;;;;;;18.05;70.42;101742.53;5054830;28;20051;-32
2023/11/17 04:50:41;;;;;;;4.75;2.50;;;;;;;18.05;70.37;101739.78;5046620;28;20473;-33
2023/11/17 04:53:07;;;;;;;5.45;2.40;;;;;;;18.04;70.50;101744.47;5043830;28;20032;-33
2023/11/17 04:55:32;;;;;;;5.00;2.40;;;;;;;18.01;70.46;101742.22;5050892;28;20041;-33
2023/11/17 04:57:58;;;;;;;4.28;2.80;;;;;;;18.02;70.43;101741.13;5037614;28;20347;-33
2023/11/17 05:00:25;;;;;;;3.05;2.20;;;;;;;18.03;70.13;101744.72;5048071;28;20498;-34
2023/11/17 05:02:52;;;;;;;2.58;2.10;;;;;;;18.02;70.49;101741.13;5048977;28;20032;-34
2023/11/17 05:05:20;;;;;;;3.15;2.20;;;;;;;18.01;70.37;101744.94;5045464;28;20123;-34
2023/11/17 05:07:46;;;;;;;2.60;2.22;;;;;;;18.00;70.22;101746.06;5051302;28;20029;-34
2023/11/17 05:10:18;;;;;;;4.00;2.38;;;;;;;18.00;70.42;101750.69;5049261;28;20090;-35
2023/11/17 05:12:44;;;;;;;3.03;2.33;;;;;;;17.98;70.25;101745.47;5045455;28;20020;-33
2023/11/17 05:15:13;;;;;;;3.60;2.30;;;;;;;17.99;70.34;101746.28;5061217;28;20490;-34
2023/11/17 05:17:44;;;;;;;4.93;2.53;;;;;;;17.97;70.32;101746.56;5058917;28;20032;-35
2023/11/17 05:20:15;;;;;;;4.20;2.50;;;;;;;17.96;70.36;101747.63;5051364;28;20028;-34
2023/11/17 05:22:41;;;;;;;2.97;2.40;;;;;;;17.96;70.24;101751.22;5047081;28;20433;-35
2023/11/17 05:25:07;;;;;;;4.32;2.63;;;;;;;17.96;70.30;101761.34;5057884;28;20020;-33
2023/11/17 05:27:36;;;;;;;4.47;2.30;;;;;;;17.95;70.17;101763.28;5049310;28;20119;-34
2023/11/17 05:30:04;;;;;;;4.30;2.28;;;;;;;17.95;70.18;101757.78;5041588;28;20021;-34
2023/11/17 05:32:30;;;;;;;3.30;2.28;;;;;;;17.93;70.31;101768.16;5033840;28;20276;-33
2023/11/17 05:34:56;;;;;;;3.03;2.13;;;;;;;17.93;70.28;101770.06;5059320;28;20507;-34
2023/11/17 05:37:22;;;;;;;2.67;2.17;;;;;;;17.92;70.39;101761.00;5035518;28;20069;-34
2023/11/17 05:39:48;;;;;;;2.88;2.13;;;;;;;17.91;70.34;101764.00;5032543;28;20033;-33
2023/11/17 05:42:13;;;;;;;2.63;2.38;;;;;;;17.90;70.11;101765.94;5039964;28;20025;-34
2023/11/17 05:44:39;;;;;;;3.17;2.20;;;;;;;17.90;70.13;101768.66;5051384;28;20096;-34
2023/11/17 05:47:06;;;;;;;4.63;2.42;;;;;;;17.89;70.26;101766.16;5050223;28;20039;-34
2023/11/17 05:49:33;;;;;;;2.92;2.30;;;;;;;17.89;70.37;101777.13;5057573;28;20139;-33
2023/11/17 05:51:58;;;;;;;3.47;2.70;;;;;;;17.88;70.39;101775.47;5052288;28;20496;-35
2023/11/17 05:54:24;;;;;;;2.60;1.95;;;;;;;17.88;70.26;101773.56;5052831;28;20320;-35
2023/11/17 05:56:49;;;;;;;2.67;2.13;;;;;;;17.86;69.94;101777.66;5048348;28;20039;-33
2023/11/17 05:59:15;;;;;;;3.63;2.50;;;;;;;17.87;70.03;101776.56;5045505;28;20109;-32
2023/11/17 06:01:41;;;;;;;4.43;2.20;;;;;;;17.84;70.41;101780.66;5055403;28;20083;-32
2023/11/17 06:04:11;;;;;;;2.92;2.15;;;;;;;17.86;70.11;101791.38;5060438;28;20418;-32
2023/11/17 06:06:39;;;;;;;3.30;2.10;;;;;;;17.84;70.03;101797.09;5039777;28;20115;-33
2023/11/17 06:09:05;;;;;;;2.42;2.10;;;;;;;17.83;70.32;101798.19;5043786;28;20039;-33
2023/11/17 06:11:32;;;;;;;3.22;2.47;;;;;;;17.83;69.98;101794.59;5049685;28;20047;-32
2023/11/17 06:13:57;;;;;;;3.17;2.20;;;;;;;17.83;70.03;101800.06;5054718;28;20071;-33
2023/11/17 06:16:23;;;;;;;2.97;2.20;;;;;;;17.82;70.28;101788.28;5057959;28;20037;-33
2023/11/17 06:18:52;;;;;;;4.15;2.10;;;;;;;17.80;70.30;101790.44;5061804;28;20024;-33
2023/11/17 06:21:17;;;;;;;2.92;2.30;;;;;;;17.79;70.06;101794.25;5044968;28;20401;-34
2023/11/17 06:23:43;;;;;;;2.78;1.95;;;;;;;17.79;70.11;101799.75;5050746;28;20021;-33
2023/11/17 06:26:08;;;;;;;2.67;2.03;;;;;;;17.81;70.40;101801.16;5040175;28;20036;-34
2023/11/17 06:28:34;;;;;;;2.47;2.08;;;;;;;17.87;70.12;101795.78;5052316;28;20207;-34
2023/11/17 06:30:59;;;;;;;2.85;2.00;;;;;;;17.92;70.04;101804.06;5041733;28;20060;-34
2023/11/17 06:33:25;;;;;;;3.58;2.20;;;;;;;18.00;69.70;101802.81;5029752;28;20405;-34
2023/11/17 06:35:50;;;;;;;4.07;2.45;;;;;;;18.08;69.66;101802.38;5033939;28;20509;-33
2023/11/17 06:38:16;;;;;;;2.97;2.17;;;;;;;18.16;69.55;101801.09;5044532;28;20098;-35
2023/11/17 06:40:43;;;;;;;4.15;2.15;;;;;;;18.25;69.50;101797.66;5036265;28;20025;-33
2023/11/17 06:43:09;;;;;;;3.08;2.20;;;;;;;18.37;69.12;101802.19;5044163;28;20059;-33
2023/11/17 06:45:34;;;;;;;3.45;2.28;;;;;;;18.47;68.96;101802.31;5042739;28;20397;-34
2023/11/17 06:48:00;;;;;;;2.72;2.10;;;;;;;18.56;68.98;101800.75;5048687;28;20115;-33
2023/11/17 06:50:25;;;;;;;2.53;2.10;;;;;;;18.67;68.92;101798.16;5044861;28;20112;-33
2023/11/17 06:52:51;;;;;;;4.03;2.20;;;;;;;18.80;68.55;101799.63;5038666;28;20444;-33
2023/11/17 06:55:17;;;;;;;3.63;2.00;;;;;;;18.91;68.51;101802.25;5038481;28;20103;-34
2023/11/17 06:57:43;;;;;;;4.95;2.20;;;;;;;19.06;68.25;101806.25;5042948;28;20083;-33
2023/11/17 07:00:12;;;;;;;2.10;1.92;;;;;;;19.19;68.06;101805.81;5040950;28;20137;-33
2023/11/17 07:02:40;;;;;;;3.35;2.20;;;;;;;19.32;67.80;101809.22;5046319;28;20070;-33
2023/11/17 07:05:07;;;;;;;2.65;1.98;;;;;;;19.44;67.81;101820.03;5044072;28;20021;-34
2023/11/17 07:07:33;;;;;;;3.28;2.25;;;;;;;19.54;67.49;101820.13;5048897;28;20029;-33
2023/11/17 07:09:59;;;;;;;2.33;2.08;;;;;;;19.64;67.30;101819.34;5046063;28;20028;-34
2023/11/17 07:12:25;;;;;;;3.15;2.00;;;;;;;19.76;67.04;101827.41;5041715;28;20033;-33
2023/11/17 07:14:51;;;;;;;5.22;2.47;;;;;;;19.85;66.59;101825.84;5032849;28;20099;-34
2023/11/17 07:17:16;;;;;;;3.25;2.08;;;;;;;19.95;66.44;101827.81;5051979;28;20054;-33
2023/11/17 07:19:43;;;;;;;3.70;2.20;;;;;;;20.04;66.35;101831.75;5048988;28;20029;-35
2023/11/17 07:22:08;;;;;;;3.78;2.20;;;;;;;20.11;66.43;101840.59;5056552;28;20313;-34
2023/11/17 07:24:34;;;;;;;3.35;2.10;;;;;;;20.17;66.36;101838.69;5047609;28;20047;-33
2023/11/17 07:27:01;;;;;;;3.05;2.20;;;;;;;20.24;66.13;101833.75;5050057;28;20028;-34
2023/11/17 07:29:26;;;;;;;3.00;2.40;;;;;;;20.30;66.10;101838.19;5032438;28;20028;-34
2023/11/17 07:31:52;;;;;;;2.83;2.15;;;;;;;20.34;65.84;101839.31;5041560;28;20021;-34
2023/11/17 07:34:18;;;;;;;4.10;2.22;;;;;;;20.39;66.19;101840.44;5047315;28;20512;-35
2023/11/17 07:36:44;;;;;;;3.28;2.30;;;;;;;20.38;66.08;101836.03;5058336;28;20027;-33
2023/11/17 07:39:13;;;;;;;3.15;1.80;;;;;;;20.38;65.72;101839.63;5043188;28;20040;-34
2023/11/17 07:41:39;;;;;;;3.22;2.22;;;;;;;20.37;65.94;101837.97;5034507;28;20064;-33
2023/11/17 07:44:06;;;;;;;4.82;2.67;;;;;;;20.34;65.88;101844.84;5042995;28;20098;-33
2023/11/17 07:46:32;;;;;;;5.88;2.30;;;;;;;20.34;65.89;101846.75;5049387;28;20371;-33
2023/11/17 07:48:57;;;;;;;3.70;2.15;;;;;;;20.32;65.78;101851.72;5049663;28;20074;-34
2023/11/17 07:51:23;;;;;;;3.60;2.10;;;;;;;20.30;65.88;101848.38;5044229;28;20035;-34
2023/11/17 07:53:49;;;;;;;3.03;2.17;;;;;;;20.27;65.70;101847.00;5042464;28;20024;-34
2023/11/17 07:56:14;;;;;;;3.92;2.67;;;;;;;20.23;65.92;101845.84;5026023;28;20418;-35
2023/11/17 07:58:41;;;;;;;4.78;2.05;;;;;;;20.22;65.97;101860.75;5033750;28;20401;-33
2023/11/17 08:01:09;;;;;;;3.90;2.05;;;;;;;20.18;65.88;101860.44;5048856;28;20017;-35
2023/11/17 08:03:38;;;;;;;3.75;2.17;;;;;;;20.13;65.89;101854.91;5028920;28;20030;-34
2023/11/17 08:06:06;;;;;;;4.00;2.10;;;;;;;20.11;66.23;101870.88;5038448;28;20029;-33
2023/11/17 08:08:32;;;;;;;2.55;2.20;;;;;;;20.06;66.04;101862.59;5038395;28;20036;-34
2023/11/17 08:10:59;;;;;;;5.80;1.90;;;;;;;20.00;66.04;101869.13;5047849;28;20104;-34
2023/11/17 08:13:25;;;;;;;3.13;2.25;;;;;;;19.93;66.09;101863.88;5043753;28;20040;-34
2023/11/17 08:15:50;;;;;;;2.95;2.20;;;;;;;19.86;66.08;101864.13;5036582;28;20229;-32
2023/11/17 08:18:16;;;;;;;3.58;2.38;;;;;;;19.80;66.31;101865.09;5050598;28;20081;-34
2023/11/17 08:20:41;;;;;;;3.05;2.08;;;;;;;19.76;66.36;101871.44;5054645;28;20056;-33
2023/11/17 08:23:08;;;;;;;3.72;2.53;;;;;;;19.69;66.26;101857.88;5027452;28;20500;-33
2023/11/17 08:25:34;;;;;;;4.07;2.40;;;;;;;19.62;66.37;101865.53;5028189;28;20025;-34
2023/11/17 08:28:00;;;;;;;3.97;2.22;;;;;;;19.58;66.44;101872.66;5048009;28;20033;-33
2023/11/17 08:30:25;;;;;;;4.32;2.40;;;;;;;19.54;66.51;101875.09;5045051;28;20568;-34
2023/11/17 08:32:51;;;;;;;3.10;2.40;;;;;;;19.50;66.89;101882.22;5037405;28;20028;-33
2023/11/17 08:35:16;;;;;;;4.28;2.35;;;;;;;19.45;66.68;101879.41;5052256;28;20128;-35
2023/11/17 08:37:42;;;;;;;5.20;2.70;;;;;;;19.41;66.94;101876.34;5042052;28;20026;-34
2023/11/17 08:40:10;;;;;;;3.30;2.40;;;;;;;19.37;66.73;101876.06;5031838;28;20033;-33
2023/11/17 08:42:37;;;;;;;3.63;2.40;;;;;;;19.35;67.01;101878.25;5043485;28;20028;-31
2023/11/17 08:45:09;;;;;;;4.57;2.83;;;;;;;19.33;67.27;101874.09;5037247;28;20371;-32
2023/11/17 08:47:39;;;;;;;3.38;2.53;;;;;;;19.31;66.81;101881.78;5060208;28;20503;-35
2023/11/17 08:50:07;;;;;;;3.40;2.25;;;;;;;19.30;66.77;101880.09;5052681;28;20104;-32
2023/11/17 08:52:34;;;;;;;3.22;2.40;;;;;;;19.29;66.94;101889.44;5054184;28;20082;-32
2023/11/17 08:55:07;;;;;;;6.32;2.60;;;;;;;19.27;67.26;101881.47;5040166;28;20060;-33
2023/11/17 08:57:33;;;;;;;3.70;2.50;;;;;;;19.26;67.25;101887.22;5039477;28;20393;-32
2023/11/17 08:59:59;;;;;;;4.13;2.60;;;;;;;19.25;66.99;101886.38;5048117;28;20053;-32
2023/11/17 09:02:26;;;;;;;5.13;2.75;;;;;;;19.23;67.21;101891.31;5042244;28;20589;-32
2023/11/17 09:04:52;;;;;;;6.65;2.65;;;;;;;19.23;67.09;101894.06;5038244;28;20076;-32
2023/11/17 09:07:22;;;;;;;3.42;2.58;;;;;;;19.21;67.00;101896.25;5048270;28;20370;-32
2023/11/17 09:09:47;;;;;;;4.43;2.70;;;;;;;19.19;67.21;101902.00;5036297;28;20034;-32
2023/11/17 09:12:15;;;;;;;4.63;2.80;;;;;;;19.19;67.30;101901.16;5048678;28;20072;-32
2023/11/17 09:14:41;;;;;;;4.88;2.70;;;;;;;19.17;67.07;101901.44;5039410;28;20025;-31
2023/11/17 09:17:07;;;;;;;248.43;12.95;;;;;;;19.18;67.31;101905.03;5051138;28;20051;-32
2023/11/17 09:19:35;;;;;;;29.98;3.58;;;;;;;19.23;67.85;101908.63;5047957;28;20389;-33
2023/11/17 09:22:01;;;;;;;28.48;3.60;;;;;;;19.30;68.53;101911.19;5048606;28;20539;-32
2023/11/17 09:24:26;;;;;;;31.83;3.97;;;;;;;19.37;68.39;101916.47;5042395;28;20033;-33
2023/11/17 09:26:53;;;;;;;16.02;3.30;;;;;;;19.43;68.41;101920.09;5051620;28;20186;-34
2023/11/17 09:29:19;;;;;;;30.08;3.75;;;;;;;19.49;68.22;101916.31;5046234;28;20048;-32
2023/11/17 09:31:44;;;;;;;19.58;3.35;;;;;;;19.51;68.28;101916.84;5055494;28;20458;-31
2023/11/17 09:34:09;;;;;;;20.60;4.05;;;;;;;19.58;68.54;101927.66;5048371;28;20546;-32
2023/11/17 09:36:36;;;;;;;21.60;3.50;;;;;;;19.60;68.44;101929.06;5030905;28;20041;-33
2023/11/17 09:39:02;;;;;;;11.95;3.53;;;;;;;19.63;67.94;101933.19;5042744;28;20096;-31
2023/11/17 09:41:27;;;;;;;11.25;3.50;;;;;;;19.65;67.87;101934.59;5035943;28;20041;-32
2023/11/17 09:43:57;;;;;;;12.60;3.60;;;;;;;19.68;67.63;101942.34;5036863;28;20535;-33
2023/11/17 09:46:27;;;;;;;13.90;4.00;;;;;;;19.70;66.37;101944.81;5046986;28;20033;-32
2023/11/17 09:48:59;;;;;;;8.45;3.55;;;;;;;19.72;66.11;101946.19;5072591;28;20025;-31
2023/11/17 09:51:24;;;;;;;6.10;3.10;;;;;;;19.76;66.56;101953.94;5044437;28;20045;-33
2023/11/17 09:53:50;;;;;;;7.68;4.07;;;;;;;19.76;66.07;101956.69;5053862;28;20024;-31
2023/11/17 09:56:16;;;;;;;8.77;3.83;;;;;;;19.78;66.01;101960.00;5038783;28;20782;-33
2023/11/17 09:58:42;;;;;;;10.05;3.78;;;;;;;19.80;66.01;101960.56;5046727;28;20511;-31
2023/11/17 10:01:10;;;;;;;5.88;3.63;;;;;;;19.81;65.86;101952.06;5043367;28;20017;-32
2023/11/17 10:03:36;;;;;;;7.13;3.63;;;;;;;19.82;65.67;101956.47;5043131;28;20574;-34
2023/11/17 10:06:04;;;;;;;6.65;3.70;;;;;;;19.83;65.66;101952.66;5052298;28;20036;-34
2023/11/17 10:08:30;;;;;;;5.15;3.70;;;;;;;19.86;65.94;101962.31;5036615;28;20021;-33
2023/11/17 10:10:56;;;;;;;6.60;3.92;;;;;;;19.87;65.66;101961.22;5042965;28;20032;-34
2023/11/17 10:13:24;;;;;;;52.45;5.07;;;;;;;19.88;65.99;101958.19;5032815;28;20087;-35
2023/11/17 10:15:51;;;;;;;16.58;4.82;;;;;;;19.90;65.69;101960.66;5043844;28;20025;-34
2023/11/17 10:18:24;;;;;;;8.40;4.30;;;;;;;19.93;65.78;101960.16;5044777;28;20063;-36
2023/11/17 10:20:50;;;;;;;84.68;7.15;;;;;;;19.96;65.62;101967.06;5038287;28;20036;-37
2023/11/17 10:23:16;;;;;;;14.05;5.40;;;;;;;19.95;65.26;101970.91;5038159;28;20039;-40
2023/11/17 10:25:43;;;;;;;13.82;5.07;;;;;;;19.94;65.55;101975.59;5035106;28;20037;-39
2023/11/17 10:28:08;;;;;;;14.75;5.25;;;;;;;19.91;65.26;101967.84;5044745;28;20029;-41
2023/11/17 10:30:37;;;;;;;12.07;4.82;;;;;;;19.88;65.52;101977.44;5031651;28;20059;-41
2023/11/17 10:33:31;;;;;;;10.50;4.88;;;;;;;19.86;65.49;101971.41;5037387;28;20022;-41
2023/11/17 10:36:15;;;;;;;11.02;4.45;;;;;;;19.85;65.93;101979.91;5068349;28;20043;-42
2023/11/17 10:38:45;;;;;;;8.70;3.97;;;;;;;19.86;65.34;101971.41;5043052;28;20025;-40
2023/11/17 10:41:30;;;;;;;9.57;3.90;;;;;;;19.88;65.50;101977.44;5045540;28;20461;-40
2023/11/17 10:43:59;;;;;;;6.32;3.78;;;;;;;19.92;65.72;101974.19;5054443;28;20653;-38
2023/11/17 10:46:29;;;;;;;6.55;3.22;;;;;;;19.94;65.86;101971.97;5042317;28;20024;-38
2023/11/17 10:48:59;;;;;;;5.38;3.30;;;;;;;19.97;66.00;101971.47;5045333;28;20029;-36
2023/11/17 10:51:26;;;;;;;6.03;2.97;;;;;;;20.00;66.33;101970.94;5045429;28;20028;-36
2023/11/17 10:54:04;;;;;;;5.03;2.92;;;;;;;20.05;66.21;101979.25;5043606;28;20394;-36
2023/11/17 10:56:30;;;;;;;4.65;2.70;;;;;;;20.08;66.05;101991.66;5046212;28;20037;-37
2023/11/17 10:58:58;;;;;;;8.15;2.85;;;;;;;20.09;65.60;101988.63;5046730;28;20045;-36
2023/11/17 11:01:30;;;;;;;5.35;2.90;;;;;;;20.10;65.32;101995.78;5055936;28;20032;-37
2023/11/17 11:03:55;;;;;;;4.20;2.75;;;;;;;20.13;65.42;101987.00;5062674;28;20070;-36
2023/11/17 11:06:25;;;;;;;3.75;2.50;;;;;;;20.13;65.29;101983.44;5039531;28;20049;-38
2023/11/17 11:08:55;;;;;;;2.40;2.10;;;;;;;20.13;65.21;101988.94;5038022;28;20024;-37
2023/11/17 11:11:23;;;;;;;4.40;2.50;;;;;;;20.14;65.39;101987.84;5045304;28;20033;-37
2023/11/17 11:14:00;;;;;;;3.88;2.47;;;;;;;20.13;65.26;101992.50;5037084;28;20079;-39
2023/11/17 11:16:31;;;;;;;2.75;1.92;;;;;;;20.14;65.13;101990.59;5049579;28;20037;-37
2023/11/17 11:18:58;;;;;;;93.47;4.97;;;;;;;20.15;64.88;101992.25;5051844;28;20028;-38
2023/11/17 11:21:27;;;;;;;4.82;2.10;;;;;;;20.15;65.28;101990.31;5052818;28;20033;-38
2023/11/17 11:23:59;;;;;;;7.72;2.20;;;;;;;20.13;64.92;101995.25;5040008;28;20028;-38
2023/11/17 11:26:25;;;;;;;3.30;1.70;;;;;;;20.11;64.85;101997.47;5050314;28;20048;-38